Главная страница
METAR-TAF:

METAR-TAF

Аэропорты :

Бермудские острова, Бермуды

широта: 32-22N, долгота: 064-41W, высота над уровнем моря: 6 м

Текущие метеонаблюдения

Эта сводка был подготовлена 39 минут назад, в 16:55 UTC
Ветер 10 Узел от северо-западный, изменяющийся между западный и северно-северо-западный
Температура 30°C
Влажность 62%
Давление 1023 hPa
Видимость 10 км и более
небольшая облачность на высоте 2200 фута

METAR: TXKF 171655Z 31010KT 280V340 9999 FEW022 30/22 Q1023

Время: 14:34 (17:34 UTC)

Прогноз

Эта сводка был подготовлена 6 часа и 4 минут назад, в 11:30 UTC
Прогноз действительный с 17-го 12 UTC до 18-го 12 UTC
Ветер 9 Узел от западный
Видимость 10 км и более
Отдельные облака на высоте 2000 фута
ливни в окрестностях
Вероятность 40% :
временами
С 18-го 03 UTC до 18-го 12 UTC
Рассеянная облачность на высоте 1800 фута
небольшие ливневые дожди

TAF: TXKF 171130Z 1712/1812 28009KT 9999 VCSH SCT020 PROB40 TEMPO 1803/1812 -SHRA BKN018

Метеонаблюдения и прогнозы для более 4000 аэропортов (сводки METAR и TAF).

Имеющиеся станции представлены на карте желтыми и красными точками.

Чтобы увидеть название станции, наведите на нее мышь.

Затем щелкните, чтобы увидеть метеонаблюдения и метеопрогнозы.

Управление картой: чтобы увеличить масштаб, щелкните зеленые кнопки с черным крестиком; чтобы уменьшить масштаб, щелкните зеленую кнопку с тире; для просмотра соседних карт щелкайте зеленые стрелки.


METAR-TAF: